createdAt,value
2018-03-11T00:00:23.230Z,0
2018-03-11T00:01:03.751Z,0
2018-03-11T00:01:44.209Z,0
2018-03-11T00:02:24.732Z,0
2018-03-11T00:03:05.195Z,0
2018-03-11T00:03:45.701Z,0
2018-03-11T00:04:26.280Z,0
2018-03-11T00:05:06.852Z,0
2018-03-11T00:05:47.316Z,0
2018-03-11T00:06:27.817Z,0
2018-03-11T00:07:08.183Z,0
2018-03-11T00:07:48.675Z,0
2018-03-11T00:08:29.224Z,0
2018-03-11T00:09:09.712Z,0
2018-03-11T00:09:50.315Z,0
2018-03-11T00:10:30.821Z,0
2018-03-11T00:11:11.363Z,0
2018-03-11T00:11:51.761Z,0
2018-03-11T00:12:32.321Z,0
2018-03-11T00:13:12.860Z,0
2018-03-11T00:13:53.294Z,0
2018-03-11T00:14:33.765Z,0
2018-03-11T00:15:14.239Z,0
2018-03-11T00:15:54.808Z,0
2018-03-11T00:16:35.291Z,0
2018-03-11T00:17:15.779Z,0
2018-03-11T00:17:56.321Z,0
2018-03-11T00:18:36.852Z,0
2018-03-11T00:19:17.305Z,0
2018-03-11T00:19:57.889Z,0
2018-03-11T00:20:38.426Z,0
2018-03-11T00:21:19.083Z,0
2018-03-11T00:21:59.472Z,0
2018-03-11T00:22:40.050Z,0
2018-03-11T00:23:20.597Z,0
2018-03-11T00:24:01.019Z,0
2018-03-11T00:24:41.478Z,0
2018-03-11T00:25:22.048Z,0
2018-03-11T00:26:02.585Z,0
2018-03-11T00:26:43.029Z,0
2018-03-11T00:27:23.520Z,0
2018-03-11T00:28:04.078Z,0
2018-03-11T00:28:44.489Z,0
2018-03-11T00:29:25.029Z,0
2018-03-11T00:30:05.450Z,0
2018-03-11T00:30:45.945Z,0
2018-03-11T00:31:26.460Z,0
2018-03-11T00:32:07.010Z,0
2018-03-11T00:32:47.442Z,0
2018-03-11T00:33:27.931Z,0
2018-03-11T00:34:08.437Z,0
2018-03-11T00:34:48.893Z,0
2018-03-11T00:35:29.390Z,0
2018-03-11T00:36:09.875Z,0
2018-03-11T00:36:50.487Z,0
2018-03-11T00:37:30.967Z,0
2018-03-11T00:38:11.507Z,0
2018-03-11T00:38:52.014Z,0
2018-03-11T00:39:32.512Z,0
2018-03-11T00:40:12.938Z,0
2018-03-11T00:40:53.453Z,0
2018-03-11T00:41:33.940Z,0
2018-03-11T00:42:14.483Z,0
2018-03-11T00:42:54.905Z,0
2018-03-11T00:43:35.900Z,0
2018-03-11T00:44:15.991Z,0
2018-03-11T00:44:56.486Z,0
2018-03-11T00:45:36.986Z,0
2018-03-11T00:46:17.511Z,0
2018-03-11T00:46:58.010Z,0
2018-03-11T00:47:38.525Z,0
2018-03-11T00:48:19.321Z,0
2018-03-11T00:48:59.806Z,0
2018-03-11T00:49:40.300Z,0
2018-03-11T00:50:20.816Z,0
2018-03-11T00:51:01.286Z,0
2018-03-11T00:51:41.764Z,0
2018-03-11T00:52:22.281Z,0
2018-03-11T00:53:02.815Z,0
2018-03-11T00:53:43.264Z,0
2018-03-11T00:54:23.715Z,0
2018-03-11T00:55:04.209Z,0
2018-03-11T00:55:44.742Z,0
2018-03-11T00:56:25.281Z,0
2018-03-11T00:57:05.827Z,0
2018-03-11T00:57:46.240Z,0
2018-03-11T00:58:26.781Z,0
2018-03-11T00:59:07.225Z,0
2018-03-11T00:59:47.760Z,0
2018-03-11T01:00:28.269Z,0
2018-03-11T01:01:08.744Z,0
2018-03-11T01:01:49.193Z,0
2018-03-11T01:02:29.809Z,0
2018-03-11T01:03:10.339Z,0
2018-03-11T01:03:50.832Z,0
2018-03-11T01:04:31.364Z,0
2018-03-11T01:05:11.915Z,0
2018-03-11T01:05:52.406Z,0
2018-03-11T01:06:32.922Z,0
2018-03-11T01:07:13.338Z,0
2018-03-11T01:07:53.840Z,0
2018-03-11T01:08:34.462Z,0
2018-03-11T01:09:14.927Z,0
2018-03-11T01:09:55.457Z,0
2018-03-11T01:10:35.893Z,0
2018-03-11T01:11:16.413Z,0
2018-03-11T01:11:56.847Z,0
2018-03-11T01:12:37.296Z,0
2018-03-11T01:13:17.848Z,0
2018-03-11T01:13:58.394Z,0
2018-03-11T01:14:38.888Z,0
2018-03-11T01:15:19.343Z,0
2018-03-11T01:15:59.906Z,0
2018-03-11T01:16:40.507Z,0
2018-03-11T01:17:21.187Z,0
2018-03-11T01:18:01.618Z,0
2018-03-11T01:18:42.119Z,0
2018-03-11T01:19:22.597Z,0
2018-03-11T01:20:03.063Z,0
2018-03-11T01:20:43.571Z,0
2018-03-11T01:21:24.071Z,0
2018-03-11T01:22:04.570Z,0
2018-03-11T01:22:45.020Z,0
2018-03-11T01:23:25.544Z,0
2018-03-11T01:24:06.016Z,0
2018-03-11T01:24:46.637Z,0
2018-03-11T01:25:27.088Z,0
2018-03-11T01:26:07.564Z,0
2018-03-11T01:26:48.037Z,0
2018-03-11T01:27:28.580Z,0
2018-03-11T01:28:09.118Z,0
2018-03-11T01:28:49.527Z,0
2018-03-11T01:29:30.048Z,0
2018-03-11T01:30:10.578Z,0
2018-03-11T01:30:51.102Z,0
2018-03-11T01:31:31.474Z,0
2018-03-11T01:32:11.978Z,0
2018-03-11T01:32:52.534Z,0
2018-03-11T01:33:32.984Z,0
2018-03-11T01:34:13.453Z,0
2018-03-11T01:34:53.991Z,0
2018-03-11T01:35:34.435Z,0
2018-03-11T01:36:15.020Z,0
2018-03-11T01:36:55.652Z,0
2018-03-11T01:37:36.033Z,0
2018-03-11T01:38:16.597Z,0
2018-03-11T01:38:57.047Z,0
2018-03-11T01:39:37.699Z,0
2018-03-11T01:40:18.129Z,0
2018-03-11T01:40:58.637Z,0
2018-03-11T01:41:39.108Z,0
2018-03-11T01:42:19.687Z,0
2018-03-11T01:43:00.210Z,0
2018-03-11T01:43:40.581Z,0
2018-03-11T01:44:21.080Z,0
2018-03-11T01:45:01.589Z,0
2018-03-11T01:45:42.065Z,0
2018-03-11T01:46:22.546Z,0
2018-03-11T01:47:03.015Z,0
2018-03-11T01:47:43.503Z,0
2018-03-11T01:48:23.958Z,0
2018-03-11T01:49:04.457Z,0
2018-03-11T01:49:45.015Z,0
2018-03-11T01:50:25.386Z,0
2018-03-11T01:51:05.892Z,0
2018-03-11T01:51:46.472Z,0
2018-03-11T01:52:26.969Z,0
2018-03-11T01:53:07.456Z,0
2018-03-11T01:53:47.923Z,0
2018-03-11T01:54:28.434Z,0
2018-03-11T01:55:08.946Z,0
2018-03-11T01:55:49.377Z,0
2018-03-11T01:56:29.882Z,0
2018-03-11T01:57:10.405Z,0
2018-03-11T01:57:50.992Z,0
2018-03-11T01:58:31.528Z,0
2018-03-11T01:59:12.226Z,0
2018-03-11T01:59:52.775Z,0
2018-03-11T02:00:33.283Z,0
2018-03-11T02:01:13.772Z,0
2018-03-11T02:01:54.205Z,0
2018-03-11T02:02:34.764Z,0
2018-03-11T02:03:15.263Z,0
2018-03-11T02:03:55.872Z,0
2018-03-11T02:04:36.404Z,0
2018-03-11T02:05:16.912Z,0
2018-03-11T02:05:57.359Z,0
2018-03-11T02:06:37.823Z,0
2018-03-11T02:07:18.504Z,0
2018-03-11T02:07:58.915Z,0
2018-03-11T02:08:39.495Z,0
2018-03-11T02:09:19.877Z,0
2018-03-11T02:10:00.325Z,0
2018-03-11T02:10:40.899Z,0
2018-03-11T02:11:21.389Z,0
2018-03-11T02:12:01.857Z,0
2018-03-11T02:12:42.343Z,0
2018-03-11T02:13:22.828Z,0
2018-03-11T02:14:03.286Z,0
2018-03-11T02:14:43.829Z,0
2018-03-11T02:15:24.324Z,0
2018-03-11T02:16:04.825Z,0
2018-03-11T02:16:45.255Z,0
2018-03-11T02:17:25.797Z,0
2018-03-11T02:18:06.327Z,0
2018-03-11T02:18:46.818Z,0
2018-03-11T02:19:27.303Z,0
2018-03-11T02:20:07.857Z,0
2018-03-11T02:20:48.287Z,0
2018-03-11T02:21:28.840Z,0
2018-03-11T02:22:09.225Z,0
2018-03-11T02:22:49.802Z,0
2018-03-11T02:23:30.263Z,0
2018-03-11T02:24:10.778Z,0
2018-03-11T02:24:51.187Z,0
2018-03-11T02:25:31.768Z,0
2018-03-11T02:26:12.310Z,0
2018-03-11T02:26:52.817Z,0
2018-03-11T02:27:33.264Z,0
2018-03-11T02:28:13.836Z,0
2018-03-11T02:28:54.219Z,0
2018-03-11T02:29:34.717Z,0
2018-03-11T02:30:15.184Z,0
2018-03-11T02:30:55.691Z,0
2018-03-11T02:31:36.183Z,0
2018-03-11T02:32:16.644Z,0
2018-03-11T02:32:57.195Z,0
2018-03-11T02:33:37.674Z,0
2018-03-11T02:34:18.178Z,0
2018-03-11T02:34:58.672Z,0
2018-03-11T02:35:39.103Z,0
2018-03-11T02:36:19.605Z,0
2018-03-11T02:37:00.073Z,0
2018-03-11T02:37:40.549Z,0
2018-03-11T02:38:21.074Z,0
2018-03-11T02:39:01.593Z,0
2018-03-11T02:39:42.109Z,0
2018-03-11T02:40:22.591Z,0
2018-03-11T02:41:03.104Z,0
2018-03-11T02:41:43.631Z,0
2018-03-11T02:42:24.032Z,0
2018-03-11T02:43:04.529Z,0
2018-03-11T02:43:44.999Z,0
2018-03-11T02:44:25.480Z,0
2018-03-11T02:45:05.997Z,0
2018-03-11T02:45:46.497Z,0
2018-03-11T02:46:26.968Z,0
2018-03-11T02:47:07.421Z,0
2018-03-11T02:47:47.894Z,0
2018-03-11T02:48:28.384Z,0
2018-03-11T02:49:08.878Z,0
2018-03-11T02:49:49.385Z,0
2018-03-11T02:50:29.878Z,0
2018-03-11T02:51:10.362Z,0
2018-03-11T02:51:50.849Z,0
2018-03-11T02:52:31.376Z,0
2018-03-11T02:53:11.868Z,0
2018-03-11T02:53:52.363Z,0
2018-03-11T02:54:32.909Z,0
2018-03-11T02:55:13.371Z,0
2018-03-11T02:55:53.863Z,0
2018-03-11T02:56:34.366Z,0
2018-03-11T02:57:14.878Z,0
2018-03-11T02:57:55.380Z,0
2018-03-11T02:58:35.856Z,0
2018-03-11T02:59:16.366Z,0
2018-03-11T02:59:56.857Z,0
2018-03-11T03:00:37.371Z,0
2018-03-11T03:01:17.967Z,0
2018-03-11T03:01:58.382Z,0
2018-03-11T03:02:38.859Z,0
2018-03-11T03:03:19.388Z,0
2018-03-11T03:03:59.906Z,0
2018-03-11T03:04:40.408Z,0
2018-03-11T03:05:20.923Z,0
2018-03-11T03:06:01.399Z,0
2018-03-11T03:06:41.905Z,0
2018-03-11T03:07:22.400Z,0
2018-03-11T03:08:02.894Z,0
2018-03-11T03:08:43.352Z,0
2018-03-11T03:09:23.834Z,0
2018-03-11T03:10:04.364Z,0
2018-03-11T03:10:44.872Z,0
2018-03-11T03:11:25.377Z,0
2018-03-11T03:12:05.887Z,0
2018-03-11T03:12:46.356Z,0
2018-03-11T03:13:26.852Z,0
2018-03-11T03:14:07.366Z,0
2018-03-11T03:14:47.874Z,0
2018-03-11T03:15:28.375Z,0
2018-03-11T03:16:08.872Z,0
2018-03-11T03:16:49.385Z,0
2018-03-11T03:17:29.858Z,0
2018-03-11T03:18:10.361Z,0
2018-03-11T03:18:50.866Z,0
2018-03-11T03:19:31.391Z,0
2018-03-11T03:20:11.883Z,0
2018-03-11T03:20:52.396Z,0
2018-03-11T03:21:32.892Z,0
2018-03-11T03:22:13.391Z,0
2018-03-11T03:22:53.877Z,0
2018-03-11T03:23:34.390Z,0
2018-03-11T03:24:14.884Z,0
2018-03-11T03:24:55.337Z,0
2018-03-11T03:25:35.861Z,0
2018-03-11T03:26:16.331Z,0
2018-03-11T03:26:56.857Z,0
2018-03-11T03:27:37.320Z,0
2018-03-11T03:28:17.862Z,0
2018-03-11T03:28:58.342Z,0
2018-03-11T03:29:38.860Z,0
2018-03-11T03:30:19.367Z,0
2018-03-11T03:30:59.826Z,0
2018-03-11T03:31:40.315Z,0
2018-03-11T03:32:20.771Z,0
2018-03-11T03:33:01.220Z,0
2018-03-11T03:33:41.725Z,0
2018-03-11T03:34:22.206Z,0
2018-03-11T03:35:02.685Z,0
2018-03-11T03:35:43.208Z,0
2018-03-11T03:36:23.665Z,0
2018-03-11T03:37:04.188Z,0
2018-03-11T03:37:44.681Z,0
2018-03-11T03:38:25.181Z,0
2018-03-11T03:39:05.693Z,0
2018-03-11T03:39:46.166Z,0
2018-03-11T03:40:26.685Z,0
2018-03-11T03:41:07.138Z,0
2018-03-11T03:41:47.644Z,0
2018-03-11T03:42:28.130Z,0
2018-03-11T03:43:08.644Z,0
2018-03-11T03:43:49.169Z,0
2018-03-11T03:44:29.654Z,0
2018-03-11T03:45:10.164Z,0
2018-03-11T03:45:50.657Z,0
2018-03-11T03:46:31.135Z,0
2018-03-11T03:47:11.654Z,0
2018-03-11T03:47:52.141Z,0
2018-03-11T03:48:32.658Z,0
2018-03-11T03:49:13.130Z,0
2018-03-11T03:49:53.627Z,0
2018-03-11T03:50:34.117Z,0
2018-03-11T03:51:14.621Z,0
2018-03-11T03:51:55.101Z,0
2018-03-11T03:52:35.586Z,0
2018-03-11T03:53:16.109Z,0
2018-03-11T03:53:56.577Z,0
2018-03-11T03:54:37.092Z,0
2018-03-11T03:55:17.579Z,0
2018-03-11T03:55:58.102Z,0
2018-03-11T03:56:38.591Z,0
2018-03-11T03:57:19.114Z,0
2018-03-11T03:57:59.653Z,0
2018-03-11T03:58:40.164Z,0
2018-03-11T03:59:20.575Z,0
2018-03-11T04:00:01.110Z,0
2018-03-11T04:00:41.591Z,0
2018-03-11T04:01:22.114Z,0
2018-03-11T04:02:02.559Z,0
2018-03-11T04:02:43.064Z,0
2018-03-11T04:03:23.543Z,0
2018-03-11T04:04:04.138Z,0
2018-03-11T04:04:44.566Z,0
2018-03-11T04:05:25.059Z,0
2018-03-11T04:06:05.565Z,0
2018-03-11T04:06:46.060Z,0
2018-03-11T04:07:26.555Z,0
2018-03-11T04:08:07.053Z,0
2018-03-11T04:08:47.547Z,0
2018-03-11T04:09:28.039Z,0
2018-03-11T04:10:08.533Z,0
2018-03-11T04:10:49.059Z,0
2018-03-11T04:11:29.522Z,0
2018-03-11T04:12:10.029Z,0
2018-03-11T04:12:50.532Z,0
2018-03-11T04:13:31.073Z,0
2018-03-11T04:14:11.574Z,0
2018-03-11T04:14:52.034Z,0
2018-03-11T04:15:32.515Z,0
2018-03-11T04:16:13.005Z,0
2018-03-11T04:16:53.517Z,0
2018-03-11T04:17:33.996Z,0
2018-03-11T04:18:14.517Z,0
2018-03-11T04:18:55.028Z,0
2018-03-11T04:19:35.509Z,0
2018-03-11T04:20:16.015Z,0
2018-03-11T04:20:56.471Z,0
2018-03-11T04:21:36.979Z,0
2018-03-11T04:22:17.510Z,0
2018-03-11T04:22:57.958Z,0
2018-03-11T04:23:38.482Z,0
2018-03-11T04:24:18.985Z,0
2018-03-11T04:24:59.485Z,0
2018-03-11T04:25:39.974Z,0
2018-03-11T04:26:20.526Z,0
2018-03-11T04:27:00.981Z,0
2018-03-11T04:27:41.488Z,0
2018-03-11T04:28:21.995Z,0
2018-03-11T04:29:02.494Z,0
2018-03-11T04:29:42.981Z,0
2018-03-11T04:30:23.481Z,0
2018-03-11T04:31:03.990Z,0
2018-03-11T04:31:44.507Z,0
2018-03-11T04:32:24.988Z,0
2018-03-11T04:33:05.505Z,0
2018-03-11T04:33:45.997Z,0
2018-03-11T04:34:26.458Z,0
2018-03-11T04:35:06.951Z,0
2018-03-11T04:35:47.468Z,0
2018-03-11T04:36:27.945Z,0
2018-03-11T04:37:08.429Z,0
2018-03-11T04:37:48.910Z,0
2018-03-11T04:38:29.416Z,0
2018-03-11T04:39:09.923Z,0
2018-03-11T04:39:50.469Z,0
2018-03-11T04:40:30.964Z,0
2018-03-11T04:41:11.433Z,0
2018-03-11T04:41:51.925Z,0
2018-03-11T04:42:32.471Z,0
2018-03-11T04:43:12.986Z,0
2018-03-11T04:43:53.509Z,0
2018-03-11T04:44:33.967Z,0
2018-03-11T04:45:14.452Z,0
2018-03-11T04:45:54.957Z,0
2018-03-11T04:46:35.444Z,0
2018-03-11T04:47:15.943Z,0
2018-03-11T04:47:56.424Z,0
2018-03-11T04:48:36.936Z,0
2018-03-11T04:49:17.442Z,0
2018-03-11T04:49:57.947Z,0
2018-03-11T04:50:38.444Z,0
2018-03-11T04:51:18.915Z,0
2018-03-11T04:51:59.431Z,0
2018-03-11T04:52:39.921Z,0
2018-03-11T04:53:20.388Z,0
2018-03-11T04:54:00.895Z,0
2018-03-11T04:54:41.409Z,0
2018-03-11T04:55:21.854Z,0
2018-03-11T04:56:02.380Z,0
2018-03-11T04:56:42.878Z,0
2018-03-11T04:57:23.382Z,0
2018-03-11T04:58:03.882Z,0
2018-03-11T04:58:44.409Z,0
2018-03-11T04:59:24.902Z,0
2018-03-11T05:00:05.389Z,0
2018-03-11T05:00:45.914Z,0
2018-03-11T05:01:26.415Z,0
2018-03-11T05:02:06.885Z,0
2018-03-11T05:02:47.379Z,0
2018-03-11T05:03:27.879Z,0
2018-03-11T05:04:08.414Z,0
2018-03-11T05:04:48.914Z,0
2018-03-11T05:05:29.411Z,0
2018-03-11T05:06:09.908Z,0
2018-03-11T05:06:50.443Z,0
2018-03-11T05:07:30.946Z,0
2018-03-11T05:08:11.425Z,0
2018-03-11T05:08:51.936Z,0
2018-03-11T05:09:32.461Z,0
2018-03-11T05:10:12.971Z,0
2018-03-11T05:10:53.435Z,0
2018-03-11T05:11:33.942Z,0
2018-03-11T05:12:14.422Z,0
2018-03-11T05:12:54.911Z,0
2018-03-11T05:13:35.439Z,0
2018-03-11T05:14:15.914Z,0
2018-03-11T05:14:56.450Z,0
2018-03-11T05:15:36.915Z,0
2018-03-11T05:16:17.436Z,0
2018-03-11T05:16:57.916Z,0
2018-03-11T05:17:38.429Z,0
2018-03-11T05:18:18.924Z,0
2018-03-11T05:18:59.422Z,0
2018-03-11T05:19:39.915Z,0
2018-03-11T05:20:20.448Z,4
2018-03-11T05:21:00.963Z,4
2018-03-11T05:21:41.457Z,0
2018-03-11T05:22:21.946Z,0
2018-03-11T05:23:02.509Z,4
2018-03-11T05:23:43.020Z,4
2018-03-11T05:24:23.562Z,0
2018-03-11T05:25:04.068Z,4
2018-03-11T05:25:44.585Z,8
2018-03-11T05:26:25.134Z,4
2018-03-11T05:27:05.592Z,8
2018-03-11T05:27:46.102Z,8
2018-03-11T05:28:26.603Z,4
2018-03-11T05:29:07.125Z,8
2018-03-11T05:29:47.599Z,8
2018-03-11T05:30:28.103Z,12
2018-03-11T05:31:08.622Z,12
2018-03-11T05:31:49.119Z,12
2018-03-11T05:32:29.640Z,16
2018-03-11T05:33:10.136Z,16
2018-03-11T05:33:50.642Z,20
2018-03-11T05:34:31.119Z,24
2018-03-11T05:35:11.621Z,28
2018-03-11T05:35:52.084Z,28
2018-03-11T05:36:32.589Z,28
2018-03-11T05:37:13.131Z,36
2018-03-11T05:37:53.615Z,36
2018-03-11T05:38:34.137Z,40
2018-03-11T05:39:14.640Z,48
2018-03-11T05:39:55.139Z,52
2018-03-11T05:40:35.615Z,56
2018-03-11T05:41:16.130Z,64
2018-03-11T05:41:56.661Z,68
2018-03-11T05:42:37.152Z,72
2018-03-11T05:43:17.652Z,76
2018-03-11T05:43:58.156Z,80
2018-03-11T05:44:38.710Z,88
2018-03-11T05:45:19.156Z,92
2018-03-11T05:45:59.680Z,100
2018-03-11T05:46:40.159Z,108
2018-03-11T05:47:20.730Z,112
2018-03-11T05:48:01.236Z,120
2018-03-11T05:48:41.748Z,128
2018-03-11T05:49:22.265Z,136
2018-03-11T05:50:02.754Z,144
2018-03-11T05:50:43.293Z,152
2018-03-11T05:51:23.810Z,156
2018-03-11T05:52:04.332Z,164
2018-03-11T05:52:44.804Z,176
2018-03-11T05:53:25.315Z,184
2018-03-11T05:54:05.815Z,196
2018-03-11T05:54:46.293Z,208
2018-03-11T05:55:26.807Z,224
2018-03-11T05:56:07.326Z,240
2018-03-11T05:56:47.802Z,256
2018-03-11T05:57:28.265Z,272
2018-03-11T05:58:08.761Z,292
2018-03-11T05:58:49.272Z,312
2018-03-11T05:59:29.799Z,328
2018-03-11T06:00:10.315Z,352
2018-03-11T06:00:50.773Z,376
2018-03-11T06:03:24.357Z,464
2018-03-11T06:04:04.840Z,484
2018-03-11T06:04:45.342Z,492
2018-03-11T06:05:25.838Z,500
2018-03-11T06:06:06.338Z,516
2018-03-11T06:06:46.861Z,528
2018-03-11T06:07:27.345Z,544
2018-03-11T06:08:07.832Z,560
2018-03-11T06:08:48.319Z,580
2018-03-11T06:09:28.829Z,596
2018-03-11T06:11:48.994Z,672
2018-03-11T06:12:29.494Z,688
2018-03-11T06:13:10.023Z,704
2018-03-11T06:13:50.512Z,716
2018-03-11T06:14:31.083Z,728
2018-03-11T06:15:11.531Z,748
2018-03-11T06:15:52.019Z,760
2018-03-11T06:16:32.481Z,780
2018-03-11T06:17:12.959Z,796
2018-03-11T06:17:53.427Z,816
2018-03-11T06:18:33.949Z,832
2018-03-11T06:19:14.450Z,864
2018-03-11T06:19:54.953Z,884
2018-03-11T06:20:35.462Z,904
2018-03-11T06:21:15.958Z,928
2018-03-11T06:21:56.451Z,956
2018-03-11T06:22:36.963Z,992
2018-03-11T06:23:17.431Z,1020
2018-03-11T06:23:57.928Z,1028
2018-03-11T06:24:38.447Z,1052
2018-03-11T06:25:18.940Z,1076
2018-03-11T06:25:59.521Z,1108
2018-03-11T06:26:39.995Z,1140
2018-03-11T06:27:20.452Z,1164
2018-03-11T06:28:01.264Z,1172
2018-03-11T06:28:41.808Z,1184
2018-03-11T06:29:22.266Z,1212
2018-03-11T06:30:04.465Z,1240
2018-03-11T06:30:45.405Z,1300
2018-03-11T06:31:28.100Z,1400
2018-03-11T06:32:10.914Z,1520
2018-03-11T06:32:51.761Z,1612
2018-03-11T06:33:32.211Z,1692
2018-03-11T06:34:12.722Z,1760
2018-03-11T06:34:54.320Z,1832
2018-03-11T06:35:35.051Z,1892
2018-03-11T06:36:15.426Z,1956
2018-03-11T06:36:55.992Z,2024
2018-03-11T06:37:36.452Z,2088
2018-03-11T06:38:16.951Z,2148
2018-03-11T06:38:57.463Z,2192
2018-03-11T06:39:37.948Z,2216
2018-03-11T06:40:18.448Z,2232
2018-03-11T06:40:58.986Z,2240
2018-03-11T06:41:39.497Z,2248
2018-03-11T06:42:19.963Z,2264
2018-03-11T06:43:00.460Z,2272
2018-03-11T06:43:40.978Z,2288
2018-03-11T06:44:21.482Z,2268
2018-03-11T06:45:02.035Z,2252
2018-03-11T06:45:42.486Z,2208
2018-03-11T06:46:22.993Z,2168
2018-03-11T06:47:03.523Z,2132
2018-03-11T06:47:43.992Z,2096
2018-03-11T06:48:24.471Z,2076
2018-03-11T06:49:05.017Z,2112
2018-03-11T06:49:45.506Z,2172
2018-03-11T06:50:26.010Z,2248
2018-03-11T06:51:06.577Z,2336
2018-03-11T06:51:47.095Z,2372
2018-03-11T06:52:27.595Z,2308
2018-03-11T06:53:08.098Z,2212
2018-03-11T06:53:48.597Z,2136
2018-03-11T06:54:30.707Z,2084
2018-03-11T06:55:11.181Z,2020
2018-03-11T06:55:51.671Z,1940
2018-03-11T06:56:32.140Z,1852
2018-03-11T06:57:12.636Z,1736
2018-03-11T06:57:53.136Z,1648
2018-03-11T06:58:33.657Z,1568
2018-03-11T06:59:14.162Z,1512
2018-03-11T06:59:54.711Z,1496
2018-03-11T07:00:35.236Z,1516
2018-03-11T07:01:15.669Z,1548
2018-03-11T07:01:56.171Z,1588
2018-03-11T07:02:36.694Z,1616
2018-03-11T07:03:17.167Z,1648
2018-03-11T07:03:57.683Z,1696
2018-03-11T07:04:38.244Z,1760
2018-03-11T07:05:18.732Z,1860
2018-03-11T07:05:59.214Z,1980
2018-03-11T07:06:39.669Z,2088
2018-03-11T07:07:20.172Z,2140
2018-03-11T07:08:00.684Z,2172
2018-03-11T07:08:41.108Z,2116
2018-03-11T07:09:21.590Z,2016
2018-03-11T07:10:02.093Z,1904
2018-03-11T07:10:42.603Z,1836
2018-03-11T07:11:23.117Z,1792
2018-03-11T07:12:03.608Z,1764
2018-03-11T07:12:44.137Z,1728
2018-03-11T07:13:24.641Z,1668
2018-03-11T07:14:05.142Z,1616
2018-03-11T07:14:45.650Z,1588
2018-03-11T07:15:26.142Z,1620
2018-03-11T07:16:06.666Z,1664
2018-03-11T07:16:47.158Z,1692
2018-03-11T07:17:27.691Z,1672
2018-03-11T07:18:08.166Z,1584
2018-03-11T07:18:48.685Z,1512
2018-03-11T07:19:29.142Z,1424
2018-03-11T07:20:09.644Z,1348
2018-03-11T07:20:50.142Z,1284
2018-03-11T07:21:30.670Z,1252
2018-03-11T07:22:11.213Z,1252
2018-03-11T07:22:51.643Z,1296
2018-03-11T07:23:32.265Z,1412
2018-03-11T07:24:12.697Z,1488
2018-03-11T07:24:53.773Z,1564
2018-03-11T07:25:34.101Z,1684
2018-03-11T07:26:14.537Z,1784
2018-03-11T07:26:55.056Z,1832
2018-03-11T07:27:35.827Z,1876
2018-03-11T07:28:16.416Z,1860
2018-03-11T07:28:57.271Z,1804
2018-03-11T07:29:37.802Z,1764
2018-03-11T07:30:18.346Z,1732
2018-03-11T07:30:59.339Z,1640
2018-03-11T07:31:39.881Z,1544
2018-03-11T07:32:20.361Z,1480
2018-03-11T07:33:00.888Z,1516
2018-03-11T07:33:41.436Z,1592
2018-03-11T07:34:22.059Z,1704
2018-03-11T07:35:02.594Z,1880
2018-03-11T07:35:43.075Z,1956
2018-03-11T07:36:23.594Z,1880
2018-03-11T07:37:04.052Z,1740
2018-03-11T07:39:34.156Z,1336
2018-03-11T07:40:14.726Z,1280
2018-03-11T07:40:55.149Z,1252
2018-03-11T07:41:36.815Z,1264
2018-03-11T07:42:17.350Z,1308
2018-03-11T07:42:58.209Z,1336
2018-03-11T07:43:38.790Z,1404
2018-03-11T07:44:19.338Z,1460
2018-03-11T07:44:59.809Z,1512
2018-03-11T07:45:40.344Z,1652
2018-03-11T07:46:20.910Z,1708
2018-03-11T07:47:01.403Z,1708
2018-03-11T07:47:41.916Z,1680
2018-03-11T07:48:22.441Z,1672
2018-03-11T07:49:03.126Z,1668
2018-03-11T07:49:43.600Z,1728
2018-03-11T07:50:24.066Z,1832
2018-03-11T07:51:04.647Z,1944
2018-03-11T07:51:45.728Z,1920
2018-03-11T07:52:26.271Z,1804
2018-03-11T07:53:06.964Z,1784
2018-03-11T07:53:47.444Z,1920
2018-03-11T07:54:28.086Z,1936
2018-03-11T07:55:08.450Z,1952
2018-03-11T07:55:49.216Z,1996
2018-03-11T07:56:29.769Z,1964
2018-03-11T07:57:10.230Z,1980
2018-03-11T07:57:50.711Z,1968
2018-03-11T07:58:31.220Z,2036
2018-03-11T07:59:11.807Z,2012
2018-03-11T07:59:52.414Z,2008
2018-03-11T08:00:32.801Z,1796
2018-03-11T08:01:15.923Z,1600
2018-03-11T08:01:56.455Z,1604
2018-03-11T08:02:36.907Z,1640
2018-03-11T08:03:17.400Z,1620
2018-03-11T08:03:57.882Z,1628
2018-03-11T08:04:38.410Z,1608
2018-03-11T08:05:19.044Z,1596
2018-03-11T08:05:59.462Z,1580
2018-03-11T08:06:40.063Z,1584
2018-03-11T08:07:20.564Z,1664
2018-03-11T08:08:01.800Z,1732
2018-03-11T08:08:41.929Z,1700
2018-03-11T08:09:22.420Z,1668
2018-03-11T08:10:02.965Z,1628
2018-03-11T08:10:43.880Z,1580
2018-03-11T08:11:24.551Z,1560
2018-03-11T08:12:05.056Z,1616
2018-03-11T08:12:45.475Z,1564
2018-03-11T08:13:26.169Z,1556
2018-03-11T08:14:06.792Z,1484
2018-03-11T08:14:47.238Z,1492
2018-03-11T08:15:27.736Z,1520
2018-03-11T08:16:08.210Z,1496
2018-03-11T08:16:48.712Z,1388
2018-03-11T08:17:29.195Z,1380
2018-03-11T08:18:09.872Z,1332
2018-03-11T08:18:50.501Z,1256
2018-03-11T08:19:31.001Z,1272
2018-03-11T08:20:11.503Z,1280
2018-03-11T08:20:51.985Z,1280
2018-03-11T08:21:32.479Z,1296
2018-03-11T08:22:12.972Z,1296
2018-03-11T08:22:53.420Z,1276
2018-03-11T08:23:33.929Z,1276
2018-03-11T08:24:14.431Z,1284
2018-03-11T08:24:54.936Z,1276
2018-03-11T08:25:35.418Z,1328
2018-03-11T08:26:15.908Z,1320
2018-03-11T08:26:56.574Z,1312
2018-03-11T08:27:37.143Z,1284
2018-03-11T08:28:17.575Z,1264
2018-03-11T08:28:58.129Z,1240
2018-03-11T08:29:38.562Z,1224
2018-03-11T08:30:19.087Z,1220
2018-03-11T08:30:59.815Z,1220
2018-03-11T08:31:40.280Z,1208
2018-03-11T08:32:20.846Z,1196
2018-03-11T08:33:01.406Z,1196
2018-03-11T08:33:41.929Z,1196
2018-03-11T08:34:22.424Z,1200
2018-03-11T08:35:02.903Z,1212
2018-03-11T08:35:43.428Z,1232
2018-03-11T08:36:23.884Z,1260
2018-03-11T08:37:04.362Z,1308
2018-03-11T08:37:44.891Z,1348
2018-03-11T08:38:25.334Z,1396
2018-03-11T08:39:05.881Z,1452
2018-03-11T08:39:46.351Z,1516
2018-03-11T08:40:26.827Z,1608
2018-03-11T08:41:07.307Z,1728
2018-03-11T08:41:47.820Z,1800
2018-03-11T08:42:28.322Z,1780
2018-03-11T08:43:08.801Z,1752
2018-03-11T08:43:49.221Z,1724
2018-03-11T08:44:29.734Z,1700
2018-03-11T08:45:10.195Z,1676
2018-03-11T08:45:50.702Z,1660
2018-03-11T08:46:31.201Z,1672
2018-03-11T08:47:11.726Z,1720
2018-03-11T08:47:52.293Z,1792
2018-03-11T08:48:32.794Z,1836
2018-03-11T08:49:13.329Z,1884
2018-03-11T08:49:54.005Z,1900
2018-03-11T08:50:34.511Z,1876
2018-03-11T08:51:14.957Z,1864
2018-03-11T08:51:55.469Z,1824
2018-03-11T08:52:35.912Z,1828
2018-03-11T08:53:16.390Z,1804
2018-03-11T08:53:56.964Z,1772
2018-03-11T08:54:37.451Z,1752
2018-03-11T08:55:17.913Z,1744
2018-03-11T08:55:58.350Z,1756
2018-03-11T08:56:39.712Z,1784
2018-03-11T08:57:20.224Z,1840
2018-03-11T08:58:00.722Z,1968
2018-03-11T08:58:41.288Z,2144
2018-03-11T08:59:21.812Z,2360
2018-03-11T09:00:02.287Z,2532
2018-03-11T09:00:42.821Z,2716
2018-03-11T09:01:23.257Z,2900
2018-03-11T09:02:03.751Z,3124
2018-03-11T09:02:44.771Z,3368
2018-03-11T09:03:25.260Z,3524
2018-03-11T09:04:06.088Z,3692
2018-03-11T09:04:46.636Z,3844
2018-03-11T09:05:27.076Z,3968
2018-03-11T09:06:07.612Z,4056
2018-03-11T09:06:48.185Z,4172
2018-03-11T09:07:28.580Z,4296
2018-03-11T09:08:09.246Z,4376
2018-03-11T09:08:49.793Z,4400
2018-03-11T09:09:30.264Z,4328
2018-03-11T09:10:10.891Z,4180
2018-03-11T09:10:51.421Z,4036
2018-03-11T09:11:32.251Z,3852
2018-03-11T09:12:12.849Z,3672
2018-03-11T09:12:53.334Z,3548
2018-03-11T09:13:33.949Z,3520
2018-03-11T09:14:14.628Z,3548
2018-03-11T09:14:55.098Z,3448
2018-03-11T09:15:35.633Z,3284
2018-03-11T09:16:16.107Z,3112
2018-03-11T09:16:56.578Z,2904
2018-03-11T09:17:37.121Z,2720
2018-03-11T09:18:17.615Z,2568
2018-03-11T09:18:58.168Z,2456
2018-03-11T09:19:38.801Z,2392
2018-03-11T09:20:19.267Z,2340
2018-03-11T09:20:59.991Z,2324
2018-03-11T09:21:40.513Z,2376
2018-03-11T09:22:20.950Z,2412
2018-03-11T09:23:01.463Z,2456
2018-03-11T09:23:41.897Z,2512
2018-03-11T09:24:22.560Z,2704
2018-03-11T09:25:03.087Z,2832
2018-03-11T09:25:43.576Z,2892
2018-03-11T09:26:24.065Z,2964
2018-03-11T09:27:04.622Z,3032
2018-03-11T09:27:45.068Z,2964
2018-03-11T09:28:25.618Z,2884
2018-03-11T09:29:06.098Z,2836
2018-03-11T09:29:46.613Z,2820
2018-03-11T09:30:28.203Z,2692
2018-03-11T09:31:08.875Z,2584
2018-03-11T09:31:52.334Z,2448
2018-03-11T09:32:32.875Z,2300
2018-03-11T09:33:13.442Z,2204
2018-03-11T09:33:53.995Z,2076
2018-03-11T09:34:34.845Z,1984
2018-03-11T09:35:15.319Z,1920
2018-03-11T09:35:55.775Z,1856
2018-03-11T09:36:36.263Z,1812
2018-03-11T09:37:17.402Z,1796
2018-03-11T09:37:58.261Z,1796
2018-03-11T09:38:38.779Z,1812
2018-03-11T09:39:19.264Z,1844
2018-03-11T09:40:00.373Z,1900